createdAt,value
2018-08-19T00:07:05.339Z,99.90
2018-08-19T00:17:07.374Z,99.90
2018-08-19T00:27:08.663Z,99.90
2018-08-19T00:37:09.930Z,99.90
2018-08-19T00:47:11.996Z,99.90
2018-08-19T00:57:13.235Z,99.90
2018-08-19T01:07:14.504Z,99.90
2018-08-19T01:17:15.755Z,99.90
2018-08-19T01:27:17.032Z,99.90
2018-08-19T01:37:19.063Z,99.90
2018-08-19T01:47:21.090Z,99.90
2018-08-19T01:57:22.373Z,99.90
2018-08-19T02:07:23.638Z,99.90
2018-08-19T02:17:24.913Z,99.90
2018-08-19T02:27:26.183Z,99.90
2018-08-19T02:37:27.427Z,99.90
2018-08-19T02:47:28.667Z,99.90
2018-08-19T02:57:29.984Z,99.90
2018-08-19T03:07:31.257Z,99.90
2018-08-19T03:17:32.521Z,99.90
2018-08-19T03:27:34.574Z,99.90
2018-08-19T03:37:35.881Z,99.90
2018-08-19T03:47:37.197Z,99.90
2018-08-19T03:57:38.467Z,99.90
2018-08-19T04:07:39.734Z,99.90
2018-08-19T04:17:41.015Z,99.90
2018-08-19T04:27:42.289Z,99.90
2018-08-19T04:37:44.607Z,99.90
2018-08-19T04:47:45.849Z,99.90
2018-08-19T04:57:47.098Z,99.90
2018-08-19T05:07:48.369Z,99.90
2018-08-19T05:17:49.600Z,99.90
2018-08-19T05:27:50.871Z,99.90
2018-08-19T05:37:52.240Z,99.90
2018-08-19T05:47:53.459Z,99.90
2018-08-19T05:57:54.758Z,99.90
2018-08-19T06:07:56.031Z,99.90
2018-08-19T06:17:57.337Z,99.90
2018-08-19T06:28:02.444Z,99.90
2018-08-19T06:38:03.712Z,98.40
2018-08-19T06:48:04.958Z,93.20
2018-08-19T06:58:07.059Z,85.10
2018-08-19T07:08:08.320Z,85.10
2018-08-19T07:18:09.608Z,83.30
2018-08-19T07:28:10.912Z,78.60
2018-08-19T07:38:12.182Z,75.40
2018-08-19T07:48:13.465Z,71.50
2018-08-19T07:58:15.494Z,64.70
2018-08-19T08:08:16.757Z,64.60
2018-08-19T08:18:18.834Z,54.10
2018-08-19T08:28:20.081Z,54.00
2018-08-19T08:38:21.343Z,52.30
2018-08-19T08:48:22.636Z,46.30
2018-08-19T08:58:23.891Z,39.80
2018-08-19T09:08:25.912Z,28.00
2018-08-19T09:18:27.149Z,27.90
2018-08-19T09:28:28.436Z,28.70
2018-08-19T09:38:29.694Z,28.40
2018-08-19T09:48:30.975Z,28.30
2018-08-19T09:58:32.391Z,27.40
2018-08-19T10:08:33.728Z,25.20
2018-08-19T10:18:35.008Z,24.70
2018-08-19T10:28:36.266Z,24.40
2018-08-19T10:38:37.497Z,25.00
2018-08-19T10:48:38.743Z,27.60
2018-08-19T10:58:40.010Z,36.30
2018-08-19T11:08:41.273Z,40.00
2018-08-19T11:18:42.734Z,38.10
2018-08-19T11:28:44.094Z,38.40
2018-08-19T11:38:45.392Z,39.90
2018-08-19T11:48:46.696Z,40.80
2018-08-19T11:58:47.990Z,40.20
2018-08-19T12:08:49.317Z,40.40
2018-08-19T12:18:50.683Z,37.60
2018-08-19T12:28:53.346Z,40.50
2018-08-19T12:38:55.022Z,37.70
2018-08-19T12:48:56.255Z,39.00
2018-08-19T12:58:57.494Z,40.00
2018-08-19T13:08:58.730Z,40.40
2018-08-19T13:18:59.971Z,40.50
2018-08-19T13:29:01.207Z,43.30
2018-08-19T13:39:03.219Z,40.60
2018-08-19T13:49:06.395Z,39.00
2018-08-19T13:59:07.872Z,38.90
2018-08-19T14:09:09.206Z,38.80
2018-08-19T14:19:10.553Z,38.40
2018-08-19T14:29:12.587Z,38.90
2018-08-19T14:39:13.871Z,38.90
2018-08-19T14:49:15.906Z,41.80
2018-08-19T14:59:17.155Z,41.80
2018-08-19T15:09:18.687Z,47.00
2018-08-19T15:19:20.687Z,50.60
2018-08-19T15:29:21.934Z,50.60
2018-08-19T15:39:23.195Z,51.00
2018-08-19T15:49:24.551Z,49.90
2018-08-19T15:59:25.829Z,48.80
2018-08-19T16:09:27.130Z,48.80
2018-08-19T16:19:28.916Z,49.90
2018-08-19T16:29:30.171Z,49.50
2018-08-19T16:39:32.246Z,50.50
2018-08-19T16:49:33.515Z,50.50
2018-08-19T16:59:35.767Z,55.70
2018-08-19T17:09:37.005Z,59.60
2018-08-19T17:19:38.365Z,61.70
2018-08-19T17:29:39.611Z,64.60
2018-08-19T17:39:41.019Z,66.90
2018-08-19T17:49:42.254Z,71.70
2018-08-19T17:59:43.632Z,73.80
2018-08-19T18:09:44.800Z,78.20
2018-08-19T18:19:46.069Z,81.40
2018-08-19T18:29:48.107Z,91.60
2018-08-19T18:39:49.377Z,91.60
2018-08-19T18:49:51.408Z,95.20
2018-08-19T18:59:52.658Z,95.10
2018-08-19T19:09:53.902Z,96.80
2018-08-19T19:19:55.168Z,97.80
2018-08-19T19:29:57.280Z,94.70
2018-08-19T19:39:58.507Z,94.70
2018-08-19T19:49:59.796Z,97.10
2018-08-19T20:00:01.059Z,97.60
2018-08-19T20:10:02.362Z,97.50
2018-08-19T20:20:04.391Z,98.90
2018-08-19T20:30:06.449Z,99.90
2018-08-19T20:40:07.724Z,99.80
2018-08-19T20:50:09.079Z,99.90
2018-08-19T21:00:10.318Z,99.90
2018-08-19T21:10:11.568Z,99.90
2018-08-19T21:20:12.814Z,99.90
2018-08-19T21:30:14.177Z,99.90
2018-08-19T21:40:15.350Z,99.90
2018-08-19T21:50:16.616Z,99.90
2018-08-19T22:00:17.895Z,99.90
2018-08-19T22:10:19.192Z,99.90
2018-08-19T22:20:20.476Z,99.90
2018-08-19T22:30:21.773Z,99.90
2018-08-19T22:40:23.155Z,99.90
2018-08-19T22:50:24.372Z,99.90
2018-08-19T23:00:25.657Z,99.90
2018-08-19T23:10:26.931Z,99.90
2018-08-19T23:20:28.934Z,99.90
2018-08-19T23:30:30.959Z,99.90
2018-08-19T23:40:32.985Z,99.90
2018-08-19T23:50:34.230Z,99.90
